Time;durP1;ratioP1;P1;durP2;ratioP2;P2;SDS_P1;SDS_P2;PMS_P1;PMS_P2;Temp;Humidity;BMP_temperature;BMP_pressure;BME280_temperature;BME280_humidity;BME280_pressure;Samples;Min_cycle;Max_cycle;Signal;HPM_P1;HPM_P2
2022/06/12 00:00:59;;;;;;;9.98;2.40;;;24.00;46.90;;;;;;7377897;19;20018;-79
2022/06/12 00:03:32;;;;;;;13.55;2.58;;;23.90;47.00;;;;;;7406742;19;20086;-79
2022/06/12 00:06:05;;;;;;;12.25;2.25;;;23.90;47.10;;;;;;7402986;19;20022;-78
2022/06/12 00:08:37;;;;;;;8.52;2.38;;;23.90;47.20;;;;;;7401955;19;20038;-79
2022/06/12 00:11:07;;;;;;;10.45;2.70;;;23.80;47.40;;;;;;7374414;19;20007;-79
2022/06/12 00:13:39;;;;;;;8.63;2.35;;;23.70;47.60;;;;;;7373107;19;20501;-79
2022/06/12 00:16:10;;;;;;;11.57;2.55;;;23.60;47.70;;;;;;7375119;19;20021;-79
2022/06/12 00:18:39;;;;;;;8.15;2.08;;;23.60;47.80;;;;;;7372909;19;20609;-79
2022/06/12 00:21:15;;;;;;;10.13;2.80;;;23.60;48.20;;;;;;7374377;19;20532;-79
2022/06/12 00:23:47;;;;;;;11.32;2.72;;;23.60;48.20;;;;;;7374425;19;20014;-80
2022/06/12 00:26:20;;;;;;;12.43;1.88;;;23.60;48.40;;;;;;7396497;19;20033;-80
2022/06/12 00:28:49;;;;;;;11.02;2.38;;;23.60;48.90;;;;;;7373185;19;20006;-77
2022/06/12 00:31:19;;;;;;;9.93;2.42;;;23.60;49.00;;;;;;7373224;19;20054;-78
2022/06/12 00:33:47;;;;;;;15.88;2.95;;;23.60;48.90;;;;;;7374726;19;20014;-78
2022/06/12 00:36:19;;;;;;;10.77;3.17;;;23.60;48.90;;;;;;7373470;19;20082;-78
2022/06/12 00:38:47;;;;;;;13.30;2.80;;;23.60;48.80;;;;;;7370853;19;20006;-79
2022/06/12 00:41:20;;;;;;;7.22;2.30;;;23.60;48.60;;;;;;7393882;19;20017;-77
2022/06/12 00:43:49;;;;;;;12.10;3.00;;;23.60;48.70;;;;;;7372263;19;20078;-78
2022/06/12 00:46:41;;;;;;;13.50;2.75;;;23.50;48.90;;;;;;7370372;19;20015;-77
2022/06/12 00:49:13;;;;;;;9.60;2.42;;;23.50;48.60;;;;;;7371863;19;20105;-78
2022/06/12 00:51:46;;;;;;;11.15;2.28;;;23.40;49.00;;;;;;7371956;19;20346;-78
2022/06/12 00:54:16;;;;;;;15.27;2.92;;;23.40;49.10;;;;;;7369676;19;20034;-78
2022/06/12 00:56:49;;;;;;;11.05;2.67;;;23.40;49.20;;;;;;7368736;19;20518;-78
2022/06/12 00:59:21;;;;;;;9.35;2.42;;;23.40;49.20;;;;;;7391010;19;20046;-78
2022/06/12 01:01:53;;;;;;;12.10;2.63;;;23.40;49.30;;;;;;7370315;19;20021;-77
2022/06/12 01:07:11;;;;;;;12.65;2.65;;;23.30;49.20;;;;;;7371576;19;20017;-78
2022/06/12 01:09:44;;;;;;;6.55;2.28;;;23.30;49.10;;;;;;7370345;19;20021;-78
2022/06/12 01:12:16;;;;;;;10.75;2.60;;;23.30;48.90;;;;;;7370309;19;20548;-77
2022/06/12 01:14:49;;;;;;;10.38;2.65;;;23.20;49.20;;;;;;7367125;19;20018;-77
2022/06/12 01:17:18;;;;;;;10.23;2.38;;;23.20;49.40;;;;;;7391364;19;20018;-77
2022/06/12 01:19:53;;;;;;;12.13;2.92;;;23.20;49.40;;;;;;7367476;19;20677;-78
2022/06/12 01:23:00;;;;;;;7.07;2.20;;;23.20;49.40;;;;;;7370450;19;20007;-78
2022/06/12 01:26:00;;;;;;;12.18;2.35;;;23.10;49.20;;;;;;7369361;19;20106;-78
2022/06/12 01:28:47;;;;;;;11.18;2.40;;;23.20;49.30;;;;;;7370131;19;20105;-78
2022/06/12 01:31:38;;;;;;;9.75;1.98;;;23.10;49.00;;;;;;7368344;19;20025;-78
2022/06/12 01:34:19;;;;;;;15.90;2.75;;;23.20;49.10;;;;;;7370074;19;20090;-79
2022/06/12 01:36:56;;;;;;;9.50;2.13;;;23.10;49.20;;;;;;7369691;19;20019;-78
2022/06/12 01:39:30;;;;;;;8.57;2.08;;;23.10;49.20;;;;;;7367898;19;20082;-77
2022/06/12 01:42:20;;;;;;;11.57;2.63;;;23.00;49.30;;;;;;7369112;19;20120;-78
2022/06/12 01:45:04;;;;;;;5.53;1.88;;;23.00;49.00;;;;;;7369501;19;20018;-78
2022/06/12 01:47:39;;;;;;;7.40;2.13;;;22.90;49.00;;;;;;7391312;19;20010;-78
2022/06/12 01:50:15;;;;;;;6.75;2.00;;;22.90;49.00;;;;;;7368664;19;20015;-78
2022/06/12 01:52:54;;;;;;;10.50;2.97;;;22.80;49.10;;;;;;7373346;19;20082;-77
2022/06/12 01:55:33;;;;;;;11.50;2.35;;;22.70;48.90;;;;;;7380180;19;20027;-78
2022/06/12 01:58:07;;;;;;;8.88;2.03;;;22.70;49.30;;;;;;7380964;19;20006;-78
2022/06/12 02:00:40;;;;;;;10.73;2.13;;;22.70;49.20;;;;;;7372341;19;20010;-77
2022/06/12 02:03:16;;;;;;;6.82;2.10;;;22.70;49.10;;;;;;7369199;19;20054;-78
2022/06/12 02:05:49;;;;;;;7.80;1.80;;;22.70;49.20;;;;;;7366619;19;20053;-78
2022/06/12 02:08:23;;;;;;;10.13;2.15;;;22.80;49.30;;;;;;7390899;19;20028;-77
2022/06/12 02:10:56;;;;;;;15.27;2.85;;;22.80;49.40;;;;;;7367544;19;20422;-79
2022/06/12 02:13:27;;;;;;;10.77;2.30;;;22.80;49.60;;;;;;7368479;19;20034;-78
2022/06/12 02:16:02;;;;;;;;;;;22.70;49.70;;;;;;7368978;19;20090;-78
2022/06/12 02:18:36;;;;;;;11.93;2.67;;;22.80;49.90;;;;;;7368661;19;19918;-78
2022/06/12 02:21:10;;;;;;;9.20;2.10;;;22.70;49.80;;;;;;7368999;19;20026;-78
2022/06/12 02:23:44;;;;;;;11.32;3.25;;;22.70;49.70;;;;;;7382691;19;20385;-78
2022/06/12 02:26:17;;;;;;;12.18;2.67;;;22.60;50.00;;;;;;7387725;19;20437;-79
2022/06/12 02:28:50;;;;;;;12.13;2.65;;;22.60;49.90;;;;;;7369558;19;20439;-77
2022/06/12 02:31:24;;;;;;;7.85;2.33;;;22.50;50.00;;;;;;7371515;19;20032;-78
2022/06/12 02:33:58;;;;;;;11.00;2.47;;;22.50;50.30;;;;;;7370527;19;20022;-77
2022/06/12 02:36:31;;;;;;;10.35;2.33;;;22.50;50.20;;;;;;7368250;19;20034;-77
2022/06/12 02:39:04;;;;;;;14.27;3.17;;;22.50;49.90;;;;;;7367576;19;20353;-78
2022/06/12 02:41:36;;;;;;;9.80;3.10;;;22.40;50.10;;;;;;7389085;19;20011;-78
2022/06/12 02:44:10;;;;;;;13.80;3.30;;;22.40;49.90;;;;;;7367486;19;20016;-78
2022/06/12 02:46:46;;;;;;;13.57;3.33;;;22.40;50.10;;;;;;7365727;19;20078;-78
2022/06/12 02:49:20;;;;;;;15.80;4.93;;;22.30;49.80;;;;;;7368316;19;20015;-78
2022/06/12 02:51:58;;;;;;;14.43;4.90;;;22.30;50.30;;;;;;7367906;19;20023;-78
2022/06/12 02:54:36;;;;;;;11.73;3.80;;;22.30;50.50;;;;;;7365501;19;20019;-78
2022/06/12 02:57:13;;;;;;;11.52;3.33;;;22.30;50.40;;;;;;7368566;19;20025;-78
2022/06/12 02:59:55;;;;;;;12.63;3.15;;;22.30;50.30;;;;;;7365791;19;20010;-77
2022/06/12 03:02:35;;;;;;;15.57;2.70;;;22.30;50.00;;;;;;7387442;19;20105;-78
2022/06/12 03:05:12;;;;;;;10.82;2.78;;;22.20;49.90;;;;;;7367043;19;20014;-78
2022/06/12 03:07:41;;;;;;;8.82;2.30;;;22.20;50.20;;;;;;7372305;19;20010;-78
2022/06/12 03:10:17;;;;;;;8.77;2.72;;;22.10;50.40;;;;;;7372569;19;20022;-77
2022/06/12 03:12:46;;;;;;;13.88;3.60;;;22.10;50.70;;;;;;7373498;19;20075;-78
2022/06/12 03:15:41;;;;;;;15.25;3.58;;;22.10;50.90;;;;;;7373994;19;20034;-77
2022/06/12 03:18:19;;;;;;;7.70;2.30;;;22.10;50.90;;;;;;7374352;19;20037;-77
2022/06/12 03:21:02;;;;;;;9.23;2.38;;;22.10;50.60;;;;;;7371537;19;20040;-78
2022/06/12 03:23:40;;;;;;;10.43;3.22;;;22.00;50.90;;;;;;7397304;19;20359;-78
2022/06/12 03:26:13;;;;;;;11.02;3.50;;;22.00;51.10;;;;;;7374110;19;20833;-78
2022/06/12 03:28:51;;;;;;;8.90;3.35;;;22.00;51.10;;;;;;7373984;19;20010;-79
2022/06/12 03:31:29;;;;;;;11.52;3.20;;;22.00;51.10;;;;;;7373742;19;20014;-78
2022/06/12 03:34:08;;;;;;;8.25;2.33;;;22.00;51.10;;;;;;7373254;19;20031;-78
2022/06/12 03:36:46;;;;;;;10.55;2.70;;;21.90;51.10;;;;;;7371709;19;20342;-78
2022/06/12 03:39:19;;;;;;;13.90;3.03;;;21.90;51.10;;;;;;7374811;19;20017;-77
2022/06/12 03:41:54;;;;;;;7.03;3.00;;;21.80;51.30;;;;;;7374222;19;20082;-77
2022/06/12 03:44:34;;;;;;;6.25;2.50;;;21.80;51.40;;;;;;7419915;19;20027;-78
2022/06/12 03:47:11;;;;;;;7.07;2.50;;;21.80;51.50;;;;;;7391729;19;20030;-78
2022/06/12 03:49:50;;;;;;;6.22;2.08;;;21.70;51.40;;;;;;7374227;19;20090;-78
2022/06/12 03:52:25;;;;;;;10.15;2.30;;;21.70;51.40;;;;;;7374825;19;20656;-78
2022/06/12 03:54:58;;;;;;;13.07;2.92;;;21.70;51.40;;;;;;7373828;19;20018;-78
2022/06/12 04:00:17;;;;;;;13.95;3.53;;;21.60;51.50;;;;;;7374470;19;20124;-78
2022/06/12 04:02:48;;;;;;;13.93;3.00;;;21.60;51.70;;;;;;7374028;19;20019;-78
2022/06/12 04:05:25;;;;;;;11.15;3.72;;;21.60;51.70;;;;;;7393251;19;20604;-78
2022/06/12 04:07:56;;;;;;;10.07;3.40;;;21.50;51.70;;;;;;7373581;19;20513;-78
2022/06/12 04:10:29;;;;;;;7.97;2.47;;;21.50;51.70;;;;;;7372562;19;20083;-78
2022/06/12 04:12:59;;;;;;;9.65;2.55;;;21.50;51.70;;;;;;7374170;19;20014;-78
2022/06/12 04:15:32;;;;;;;13.52;2.60;;;21.50;51.60;;;;;;7374985;19;20125;-79
2022/06/12 04:18:02;;;;;;;10.43;2.75;;;21.50;51.80;;;;;;7372475;19;20104;-78
2022/06/12 04:20:45;;;;;;;9.15;2.70;;;21.50;51.80;;;;;;7393496;19;20082;-78
2022/06/12 04:23:22;;;;;;;10.52;3.72;;;21.40;52.00;;;;;;7373426;19;20020;-79
2022/06/12 04:25:57;;;;;;;14.60;4.57;;;21.40;51.90;;;;;;7373020;19;20056;-78
2022/06/12 04:28:31;;;;;;;9.93;3.70;;;21.40;51.80;;;;;;7373776;19;20441;-78
2022/06/12 04:31:01;;;;;;;12.65;4.30;;;21.50;51.80;;;;;;7372816;19;20024;-79
2022/06/12 04:33:44;;;;;;;9.75;4.65;;;21.40;51.70;;;;;;7373899;19;20040;-78
2022/06/12 04:36:16;;;;;;;9.30;4.18;;;21.40;51.80;;;;;;7372422;19;20022;-78
2022/06/12 04:38:45;;;;;;;19.55;5.55;;;21.30;51.90;;;;;;7372788;19;20018;-78
2022/06/12 04:41:21;;;;;;;14.80;4.80;;;21.30;52.10;;;;;;7391988;19;20022;-78
2022/06/12 04:43:50;;;;;;;26.25;4.85;;;21.30;52.20;;;;;;7372990;19;20060;-78
2022/06/12 04:46:20;;;;;;;13.18;3.63;;;21.30;52.30;;;;;;7373194;19;20017;-78
2022/06/12 04:48:52;;;;;;;10.68;3.55;;;21.30;52.50;;;;;;7371280;19;20074;-79
2022/06/12 04:51:23;;;;;;;12.65;2.90;;;21.40;52.60;;;;;;7374518;19;20146;-79
2022/06/12 04:53:52;;;;;;;9.63;2.72;;;21.40;52.20;;;;;;7373461;19;20094;-78
2022/06/12 04:56:23;;;;;;;7.88;3.10;;;21.50;52.00;;;;;;7394670;19;20470;-78
2022/06/12 04:58:52;;;;;;;9.38;3.55;;;21.50;52.10;;;;;;7373048;19;20448;-79
2022/06/12 05:01:21;;;;;;;9.93;3.22;;;21.60;52.20;;;;;;7372331;19;20452;-78
2022/06/12 05:03:50;;;;;;;10.20;2.97;;;21.60;52.30;;;;;;7371462;19;20093;-78
2022/06/12 05:06:19;;;;;;;12.18;2.80;;;21.60;52.50;;;;;;7372300;19;20341;-77
2022/06/12 05:08:52;;;;;;;11.35;3.08;;;21.60;52.40;;;;;;7372453;19;20025;-78
2022/06/12 05:11:22;;;;;;;10.98;2.90;;;21.60;52.40;;;;;;7393646;19;20024;-78
2022/06/12 05:13:51;;;;;;;10.63;2.28;;;21.60;52.40;;;;;;7371454;19;20022;-78
2022/06/12 05:16:28;;;;;;;9.52;2.40;;;21.70;52.60;;;;;;7371326;19;20201;-78
2022/06/12 05:18:57;;;;;;;11.52;2.85;;;21.70;52.90;;;;;;7372060;19;20022;-78
2022/06/12 05:21:25;;;;;;;12.48;2.50;;;21.70;53.60;;;;;;7370909;19;20010;-79
2022/06/12 05:23:57;;;;;;;8.25;2.72;;;21.70;53.00;;;;;;7372823;19;20014;-78
2022/06/12 05:26:26;;;;;;;8.93;2.20;;;21.80;53.10;;;;;;7392101;19;20018;-78
2022/06/12 05:28:56;;;;;;;12.57;2.65;;;21.80;53.30;;;;;;7375148;19;20014;-78
2022/06/12 05:31:25;;;;;;;8.07;2.10;;;21.80;53.20;;;;;;7391514;19;20002;-77
2022/06/12 05:33:54;;;;;;;16.63;3.17;;;21.80;52.50;;;;;;7390809;19;20054;-78
2022/06/12 05:36:23;;;;;;;9.63;2.40;;;21.80;52.10;;;;;;7389929;19;20007;-77
2022/06/12 05:38:53;;;;;;;8.80;2.20;;;21.80;51.80;;;;;;7375571;19;20035;-78
2022/06/12 05:41:24;;;;;;;10.80;2.75;;;21.90;52.30;;;;;;7390730;19;20093;-78
2022/06/12 05:43:52;;;;;;;;;;;21.80;51.30;;;;;;7372528;19;20081;-78
2022/06/12 05:46:21;;;;;;;12.45;2.45;;;21.90;51.50;;;;;;7371331;19;19938;-78
2022/06/12 05:48:50;;;;;;;11.93;3.10;;;21.90;51.70;;;;;;7370726;19;20015;-77
2022/06/12 05:51:21;;;;;;;18.83;3.22;;;21.90;51.30;;;;;;7372704;19;20078;-78
2022/06/12 05:53:50;;;;;;;13.38;2.20;;;21.90;50.30;;;;;;7371514;19;20039;-78
2022/06/12 05:56:25;;;;;;;10.50;2.50;;;21.80;50.00;;;;;;7390555;19;20405;-78
2022/06/12 05:58:56;;;;;;;16.58;2.40;;;21.80;50.10;;;;;;7370174;19;20019;-78
2022/06/12 06:01:26;;;;;;;16.17;2.78;;;21.70;50.30;;;;;;7369871;19;20054;-78
2022/06/12 06:03:55;;;;;;;12.93;3.10;;;21.70;50.60;;;;;;7369873;19;20014;-78
2022/06/12 06:06:29;;;;;;;11.77;2.55;;;21.80;50.40;;;;;;7368885;19;20011;-78
2022/06/12 06:09:02;;;;;;;13.88;2.75;;;21.90;50.30;;;;;;7369891;19;20635;-78
2022/06/12 06:11:31;;;;;;;12.93;2.25;;;21.90;50.30;;;;;;7390415;19;20329;-78
2022/06/12 06:14:02;;;;;;;23.67;4.25;;;22.00;50.20;;;;;;7368544;19;20097;-78
2022/06/12 06:16:33;;;;;;;12.85;2.42;;;22.00;50.30;;;;;;7367721;19;20090;-78
2022/06/12 06:19:02;;;;;;;11.70;2.22;;;22.10;50.30;;;;;;7369830;19;20098;-78
2022/06/12 06:21:31;;;;;;;10.38;2.22;;;22.10;50.00;;;;;;7368192;19;20028;-78
2022/06/12 06:23:59;;;;;;;9.52;2.00;;;22.20;49.80;;;;;;7368538;19;20130;-78
2022/06/12 06:26:32;;;;;;;12.38;2.10;;;22.20;49.30;;;;;;7389008;19;20521;-78
2022/06/12 06:29:03;;;;;;;13.88;2.38;;;22.20;48.60;;;;;;7367337;19;20501;-77
2022/06/12 06:31:31;;;;;;;;;;;22.20;48.80;;;;;;7369434;19;20007;-77
2022/06/12 06:34:01;;;;;;;12.35;2.45;;;22.40;49.10;;;;;;7368498;19;19915;-78
2022/06/12 06:36:30;;;;;;;10.32;2.35;;;22.30;48.40;;;;;;7367007;19;20018;-79
2022/06/12 06:39:00;;;;;;;12.20;2.40;;;22.30;47.90;;;;;;7366232;19;20447;-77
2022/06/12 06:41:33;;;;;;;15.32;2.30;;;22.30;48.40;;;;;;7392194;19;20021;-77
2022/06/12 06:46:46;;;;;;;9.70;2.17;;;22.40;48.40;;;;;;7374666;19;20015;-78
2022/06/12 06:49:14;;;;;;;11.68;2.50;;;22.40;48.40;;;;;;7375810;19;20011;-79
2022/06/12 06:51:43;;;;;;;13.02;2.22;;;22.50;48.40;;;;;;7374019;19;20024;-78
2022/06/12 06:54:12;;;;;;;11.25;2.45;;;22.60;48.20;;;;;;7375692;19;20589;-78
2022/06/12 06:56:40;;;;;;;8.68;2.05;;;22.60;47.90;;;;;;7384827;19;20082;-79
2022/06/12 06:59:12;;;;;;;10.32;2.10;;;22.60;47.70;;;;;;7392991;19;20040;-78
2022/06/12 07:01:41;;;;;;;10.48;2.00;;;22.70;47.90;;;;;;7371786;19;20017;-78
2022/06/12 07:04:10;;;;;;;10.20;2.08;;;22.70;47.40;;;;;;7374705;19;20466;-79
2022/06/12 07:06:38;;;;;;;13.98;2.30;;;22.70;47.40;;;;;;7373321;19;20099;-78
2022/06/12 07:09:07;;;;;;;9.77;2.33;;;22.80;47.50;;;;;;7375823;19;20101;-79
2022/06/12 07:11:36;;;;;;;11.95;2.03;;;22.80;47.60;;;;;;7408294;19;20032;-78
2022/06/12 07:14:05;;;;;;;7.60;2.33;;;22.90;47.30;;;;;;7408238;19;20024;-78
2022/06/12 07:16:38;;;;;;;12.63;2.40;;;22.90;47.20;;;;;;7404954;19;20006;-78
2022/06/12 07:19:07;;;;;;;8.30;2.00;;;22.90;47.00;;;;;;7376968;19;20041;-78
2022/06/12 07:21:36;;;;;;;11.20;2.03;;;22.90;46.50;;;;;;7374015;19;20082;-78
2022/06/12 07:24:05;;;;;;;10.77;4.28;;;23.00;46.70;;;;;;7375354;19;20015;-77
2022/06/12 07:26:38;;;;;;;9.10;3.00;;;23.00;46.50;;;;;;7396881;19;20010;-77
2022/06/12 07:29:08;;;;;;;12.85;2.00;;;23.00;46.40;;;;;;7373765;19;20469;-78
2022/06/12 07:31:40;;;;;;;8.30;2.03;;;23.00;46.10;;;;;;7374328;19;20014;-77
2022/06/12 07:34:11;;;;;;;9.75;2.28;;;22.60;45.30;;;;;;7375037;19;20134;-79
2022/06/12 07:36:41;;;;;;;9.80;2.13;;;22.50;46.30;;;;;;7373903;19;20638;-79
2022/06/12 07:39:12;;;;;;;8.02;1.88;;;22.60;46.80;;;;;;7373976;19;20037;-78
2022/06/12 07:41:41;;;;;;;10.45;1.88;;;22.60;46.50;;;;;;7379662;19;20102;-78
2022/06/12 07:44:10;;;;;;;6.53;2.00;;;22.70;46.00;;;;;;7391732;19;20021;-78
2022/06/12 07:46:42;;;;;;;6.93;1.75;;;22.60;45.60;;;;;;7372482;19;20467;-78
2022/06/12 07:49:10;;;;;;;;;;;22.50;45.60;;;;;;7374482;19;20021;-78
2022/06/12 07:51:39;;;;;;;6.30;1.65;;;22.70;45.60;;;;;;7373648;19;19973;-78
2022/06/12 07:54:08;;;;;;;6.30;1.55;;;22.40;45.40;;;;;;7371089;19;20022;-78
2022/06/12 07:56:37;;;;;;;11.05;1.83;;;22.30;45.40;;;;;;7394643;19;20497;-78
2022/06/12 07:59:07;;;;;;;8.45;1.85;;;22.10;45.30;;;;;;7372913;19;20018;-78
2022/06/12 08:01:36;;;;;;;7.63;1.85;;;22.20;45.40;;;;;;7370954;19;20011;-78
2022/06/12 08:04:09;;;;;;;6.05;1.75;;;22.50;45.60;;;;;;7374692;19;20011;-78
2022/06/12 08:06:41;;;;;;;6.25;1.52;;;22.60;45.30;;;;;;7371460;19;20491;-78
2022/06/12 08:09:11;;;;;;;7.35;2.15;;;22.70;45.40;;;;;;7374017;19;20050;-78
2022/06/12 08:11:41;;;;;;;5.65;1.55;;;22.80;45.60;;;;;;7390505;19;20015;-78
2022/06/12 08:14:10;;;;;;;6.15;1.83;;;22.90;46.00;;;;;;7392966;19;20741;-78
2022/06/12 08:16:40;;;;;;;5.97;1.98;;;23.00;46.20;;;;;;7370393;19;20129;-78
2022/06/12 08:21:53;;;;;;;8.23;2.20;;;22.90;46.30;;;;;;7370934;19;20017;-78
2022/06/12 08:24:26;;;;;;;11.77;1.90;;;23.00;45.70;;;;;;7371310;19;20737;-77
2022/06/12 08:26:55;;;;;;;9.75;2.28;;;23.00;46.20;;;;;;7372271;19;20014;-78
2022/06/12 08:29:23;;;;;;;9.13;2.25;;;22.90;45.40;;;;;;7393430;19;20163;-78
2022/06/12 08:31:57;;;;;;;9.30;1.90;;;22.90;45.90;;;;;;7370622;19;20082;-78
2022/06/12 08:34:35;;;;;;;11.68;2.40;;;22.90;45.80;;;;;;7371869;19;20014;-78
2022/06/12 08:37:12;;;;;;;14.75;2.38;;;22.80;45.90;;;;;;7371425;19;20125;-77
2022/06/12 08:39:41;;;;;;;7.75;1.98;;;22.90;46.70;;;;;;7371901;19;20062;-77
2022/06/12 08:42:14;;;;;;;9.02;1.90;;;23.00;47.20;;;;;;7372267;19;20038;-77
2022/06/12 08:44:50;;;;;;;9.02;2.38;;;23.00;45.90;;;;;;7377389;19;20019;-78
2022/06/12 08:47:26;;;;;;;13.88;2.15;;;23.10;45.80;;;;;;7399344;19;20544;-78
2022/06/12 08:50:09;;;;;;;15.80;2.67;;;23.10;46.10;;;;;;7376899;19;20090;-77
2022/06/12 08:52:45;;;;;;;7.28;1.88;;;23.20;46.20;;;;;;7378977;19;20018;-79
2022/06/12 08:55:21;;;;;;;7.70;1.98;;;23.20;46.30;;;;;;7393489;19;20090;-78
2022/06/12 08:57:56;;;;;;;12.18;3.50;;;23.30;46.10;;;;;;7389525;19;20014;-78
2022/06/12 09:00:28;;;;;;;9.85;2.65;;;23.40;46.50;;;;;;7384218;19;20054;-78
2022/06/12 09:02:58;;;;;;;12.23;2.70;;;23.40;46.10;;;;;;7373002;19;20090;-77
2022/06/12 09:05:37;;;;;;;11.50;2.40;;;23.30;44.90;;;;;;7393629;19;20018;-77
2022/06/12 09:08:14;;;;;;;9.30;1.90;;;23.30;45.00;;;;;;7374918;19;20027;-77
2022/06/12 09:10:47;;;;;;;7.53;1.98;;;23.20;45.10;;;;;;7373704;19;20066;-77
2022/06/12 09:13:25;;;;;;;8.10;2.20;;;22.80;45.10;;;;;;7372313;19;20094;-77
2022/06/12 09:16:04;;;;;;;7.60;1.50;;;22.60;45.20;;;;;;7371768;19;20101;-79
2022/06/12 09:18:43;;;;;;;6.32;1.58;;;22.50;45.30;;;;;;7373653;19;20027;-77
2022/06/12 09:21:18;;;;;;;9.55;2.08;;;22.60;45.30;;;;;;7371427;19;20136;-77
2022/06/12 09:23:57;;;;;;;8.02;1.80;;;22.80;45.40;;;;;;7373290;19;20024;-78
2022/06/12 09:26:33;;;;;;;7.95;1.92;;;23.00;45.30;;;;;;7394119;19;20115;-78
2022/06/12 09:29:10;;;;;;;6.85;1.70;;;23.10;45.20;;;;;;7371976;19;20019;-78
2022/06/12 09:31:45;;;;;;;11.75;2.05;;;23.20;45.00;;;;;;7372945;19;20022;-77
2022/06/12 09:34:25;;;;;;;9.02;1.92;;;23.20;45.00;;;;;;7372806;19;20114;-78
2022/06/12 09:38:18;;;;;;;10.05;2.13;;;23.20;44.20;;;;;;7372764;19;20025;-78
2022/06/12 09:40:05;;;;;;;11.18;2.00;;;23.20;44.40;;;;;;7372125;19;20311;-78
2022/06/12 09:42:50;;;;;;;4.15;1.20;;;23.20;44.50;;;;;;7371815;19;20017;-78
2022/06/12 09:45:26;;;;;;;5.95;1.85;;;23.00;41.80;;;;;;7372881;19;20014;-78
2022/06/12 09:48:02;;;;;;;6.35;1.98;;;23.00;43.00;;;;;;7372457;19;20046;-78
2022/06/12 09:50:43;;;;;;;9.52;2.10;;;23.00;44.10;;;;;;7392888;19;20021;-78
2022/06/12 09:53:43;;;;;;;10.60;2.03;;;23.00;44.80;;;;;;7371183;19;20046;-78
2022/06/12 09:56:17;;;;;;;8.90;2.45;;;23.00;44.90;;;;;;7371186;19;20793;-79
2022/06/12 09:58:50;;;;;;;7.47;1.92;;;23.00;45.50;;;;;;7371741;19;20026;-78
2022/06/12 10:01:23;;;;;;;7.32;1.80;;;23.20;45.20;;;;;;7369851;19;20019;-78
2022/06/12 10:03:57;;;;;;;6.57;1.95;;;23.10;45.00;;;;;;7371268;19;20014;-78
2022/06/12 10:06:31;;;;;;;5.28;1.80;;;23.10;44.70;;;;;;7371049;19;20089;-78
2022/06/12 10:09:09;;;;;;;7.97;2.22;;;23.10;45.00;;;;;;7369211;19;20024;-77
2022/06/12 10:11:44;;;;;;;9.88;2.28;;;23.00;45.70;;;;;;7392554;19;20306;-78
2022/06/12 10:14:17;;;;;;;12.90;2.03;;;23.10;46.30;;;;;;7370385;19;20021;-78
2022/06/12 10:16:51;;;;;;;12.13;2.38;;;23.20;46.70;;;;;;7374919;19;20465;-78
2022/06/12 10:19:24;;;;;;;12.25;3.13;;;23.30;45.70;;;;;;7377275;19;20199;-78
2022/06/12 10:21:56;;;;;;;7.65;1.85;;;23.30;45.40;;;;;;7375457;19;20126;-78
2022/06/12 10:24:28;;;;;;;9.50;2.85;;;23.40;45.90;;;;;;7377465;19;20018;-77
2022/06/12 10:27:02;;;;;;;;;;;23.50;46.40;;;;;;7376432;19;20019;-77
2022/06/12 10:29:43;;;;;;;8.05;2.17;;;23.40;46.60;;;;;;7399360;19;20301;-79
2022/06/12 10:32:16;;;;;;;8.93;2.17;;;23.50;46.30;;;;;;7377698;19;20429;-78
2022/06/12 10:34:45;;;;;;;11.85;2.40;;;23.50;46.70;;;;;;7376975;19;20455;-79
2022/06/12 10:37:19;;;;;;;9.02;2.17;;;23.50;47.20;;;;;;7379266;19;20022;-79
2022/06/12 10:40:02;;;;;;;7.93;2.08;;;23.70;47.10;;;;;;7385507;19;20014;-78
2022/06/12 10:42:42;;;;;;;7.80;2.17;;;23.90;46.70;;;;;;7398369;19;20055;-79
2022/06/12 10:45:24;;;;;;;8.05;2.50;;;23.90;46.90;;;;;;7391887;19;20014;-78
2022/06/12 10:47:55;;;;;;;9.00;2.10;;;23.70;46.10;;;;;;7374778;19;20136;-78
2022/06/12 10:50:28;;;;;;;8.73;2.53;;;23.70;46.80;;;;;;7400141;19;20094;-78
2022/06/12 10:53:01;;;;;;;14.55;2.63;;;23.90;47.40;;;;;;7377691;19;20017;-78
2022/06/12 10:55:53;;;;;;;9.02;2.30;;;23.80;47.00;;;;;;7377291;19;20018;-77
2022/06/12 10:58:45;;;;;;;9.00;2.35;;;23.70;46.90;;;;;;7377030;19;20450;-77
2022/06/12 11:01:22;;;;;;;9.10;2.60;;;23.60;48.30;;;;;;7374987;19;20021;-78
2022/06/12 11:03:59;;;;;;;8.23;2.58;;;23.90;47.70;;;;;;7376346;19;20101;-77
2022/06/12 11:06:36;;;;;;;11.05;2.28;;;24.00;46.40;;;;;;7375550;19;20018;-77
2022/06/12 11:09:15;;;;;;;9.90;2.50;;;23.90;45.30;;;;;;7377289;19;20086;-77
2022/06/12 11:12:08;;;;;;;10.25;2.97;;;23.80;45.30;;;;;;7377581;19;20025;-78
2022/06/12 11:14:49;;;;;;;7.90;2.05;;;23.90;45.60;;;;;;7395296;19;20377;-78
2022/06/12 11:17:39;;;;;;;5.53;2.10;;;23.90;45.10;;;;;;7375399;19;20066;-78
2022/06/12 11:20:27;;;;;;;6.60;2.50;;;24.20;44.50;;;;;;7376181;19;20006;-77
2022/06/12 11:23:10;;;;;;;6.80;2.00;;;24.30;43.50;;;;;;7373498;19;20014;-78
2022/06/12 11:25:50;;;;;;;8.80;2.08;;;24.10;43.00;;;;;;7375827;19;20094;-77
2022/06/12 11:28:36;;;;;;;6.18;2.03;;;24.10;42.30;;;;;;7375201;19;20021;-77
2022/06/12 11:31:28;;;;;;;6.75;1.73;;;24.20;42.60;;;;;;7374680;19;20496;-77
2022/06/12 11:34:16;;;;;;;5.97;2.00;;;24.30;42.80;;;;;;7375322;19;20018;-77
2022/06/12 11:36:56;;;;;;;7.65;2.15;;;24.40;42.70;;;;;;7374873;19;20011;-77
2022/06/12 11:39:42;;;;;;;7.50;2.10;;;24.60;43.10;;;;;;7376352;19;20025;-77
2022/06/12 11:42:30;;;;;;;6.55;1.92;;;24.60;42.80;;;;;;7373885;19;20010;-77
2022/06/12 11:45:16;;;;;;;6.20;1.92;;;24.60;42.70;;;;;;7375819;19;20096;-78
2022/06/12 11:48:09;;;;;;;5.35;1.90;;;24.70;41.60;;;;;;7373574;19;20080;-78
2022/06/12 11:50:44;;;;;;;5.43;1.98;;;24.80;42.10;;;;;;7398032;19;20011;-78
2022/06/12 11:53:23;;;;;;;7.10;2.13;;;24.70;41.90;;;;;;7375863;19;20018;-78
2022/06/12 11:56:05;;;;;;;6.18;1.90;;;24.70;41.40;;;;;;7382506;19;20014;-78
2022/06/12 11:58:48;;;;;;;10.15;2.75;;;24.70;41.30;;;;;;7381134;19;20025;-78
2022/06/12 12:01:28;;;;;;;6.80;2.85;;;24.80;41.50;;;;;;7381504;19;20046;-77
2022/06/12 12:04:27;;;;;;;5.03;2.00;;;24.90;41.30;;;;;;7390771;19;20018;-78
2022/06/12 12:07:18;;;;;;;5.85;2.05;;;24.90;41.30;;;;;;7384547;19;20035;-77
2022/06/12 12:10:01;;;;;;;5.88;2.17;;;24.80;40.60;;;;;;7375839;19;20149;-77
2022/06/12 12:12:34;;;;;;;13.98;6.85;;;25.00;40.80;;;;;;7375482;19;20509;-78
2022/06/12 12:15:07;;;;;;;6.70;2.13;;;25.10;40.90;;;;;;7375190;19;20424;-78
2022/06/12 12:17:43;;;;;;;6.00;2.35;;;24.80;41.10;;;;;;7396885;19;20018;-78
2022/06/12 12:20:18;;;;;;;5.68;1.80;;;24.90;40.30;;;;;;7376097;19;20021;-78
2022/06/12 12:22:51;;;;;;;4.60;1.83;;;25.00;40.60;;;;;;7374681;19;20476;-78
2022/06/12 12:25:27;;;;;;;7.30;1.95;;;25.10;40.00;;;;;;7376299;19;20111;-79
2022/06/12 12:27:58;;;;;;;6.40;2.17;;;25.10;39.80;;;;;;7379438;19;20030;-78
2022/06/12 12:30:28;;;;;;;;;;;25.10;41.00;;;;;;7393142;19;20010;-78
2022/06/12 12:33:02;;;;;;;5.25;1.95;;;25.10;39.90;;;;;;7397085;19;19917;-77
2022/06/12 12:41:16;;;;;;;5.82;1.90;;;25.10;40.50;;;;;;7373019;19;20013;-78
2022/06/12 12:43:53;;;;;;;6.05;2.10;;;25.10;40.00;;;;;;7370999;19;20021;-77
2022/06/12 12:46:23;;;;;;;8.55;2.30;;;25.30;40.10;;;;;;7372065;19;20015;-77
2022/06/12 12:48:56;;;;;;;7.10;2.15;;;25.30;40.40;;;;;;7374164;19;20025;-77
2022/06/12 12:51:32;;;;;;;7.00;2.15;;;25.40;40.50;;;;;;7372457;19;20015;-77
2022/06/12 12:54:12;;;;;;;4.05;1.90;;;25.40;39.60;;;;;;7373558;19;20038;-77
2022/06/12 12:56:52;;;;;;;5.13;1.92;;;25.40;39.70;;;;;;7389424;19;20010;-77
2022/06/12 12:59:22;;;;;;;5.38;1.80;;;25.40;38.90;;;;;;7391562;19;20027;-78
2022/06/12 13:01:54;;;;;;;4.93;1.58;;;25.30;40.00;;;;;;7370754;19;20018;-77
2022/06/12 13:04:34;;;;;;;6.53;1.98;;;25.40;39.30;;;;;;7371258;19;20006;-77
2022/06/12 13:07:18;;;;;;;6.15;1.90;;;25.50;39.40;;;;;;7372934;19;20525;-78
2022/06/12 13:10:13;;;;;;;7.35;2.13;;;25.70;38.90;;;;;;7372406;19;20025;-78
2022/06/12 13:13:13;;;;;;;5.65;1.73;;;25.70;39.30;;;;;;7369864;19;20081;-78
2022/06/12 13:15:49;;;;;;;10.30;2.60;;;25.80;39.40;;;;;;7370785;19;20515;-78
2022/06/12 13:18:35;;;;;;;6.30;1.80;;;25.70;39.20;;;;;;7371992;19;20017;-78
2022/06/12 13:21:15;;;;;;;4.60;1.98;;;25.80;38.90;;;;;;7370561;19;20018;-78
2022/06/12 13:24:09;;;;;;;8.27;3.93;;;25.70;38.90;;;;;;7370516;19;20022;-78
2022/06/12 13:26:41;;;;;;;4.28;1.50;;;25.80;40.10;;;;;;7391415;19;20356;-78
2022/06/12 13:29:17;;;;;;;5.65;2.30;;;25.90;39.50;;;;;;7372043;19;20078;-77
2022/06/12 13:31:59;;;;;;;5.45;1.95;;;25.80;39.30;;;;;;7369849;19;20133;-78
2022/06/12 13:34:29;;;;;;;5.20;2.10;;;25.90;39.90;;;;;;7371607;19;20484;-78
2022/06/12 13:37:01;;;;;;;7.53;1.92;;;26.10;40.30;;;;;;7370555;19;20453;-78
2022/06/12 13:39:33;;;;;;;7.90;2.03;;;26.10;39.00;;;;;;7370049;19;20114;-78